createdAt,value
2018-07-01T00:00:28.144Z,20
2018-07-01T00:05:26.190Z,20
2018-07-01T00:10:24.121Z,20.1
2018-07-01T00:15:22.565Z,20.1
2018-07-01T00:20:20.753Z,19.5
2018-07-01T00:25:19.200Z,19.5
2018-07-01T00:30:17.252Z,20
2018-07-01T00:35:15.443Z,19.5
2018-07-01T00:40:14.097Z,19.4
2018-07-01T00:45:11.956Z,19.4
2018-07-01T00:50:10.203Z,19.9
2018-07-01T00:55:08.400Z,19.9
2018-07-01T01:00:06.544Z,19.9
2018-07-01T01:05:06.756Z,19.3
2018-07-01T01:10:05.001Z,19.3
2018-07-01T01:15:03.473Z,19.3
2018-07-01T01:20:00.972Z,19.8
2018-07-01T01:24:59.405Z,19.7
2018-07-01T01:29:57.816Z,19.6
2018-07-01T01:34:56.510Z,19.6
2018-07-01T01:39:54.508Z,19.5
2018-07-01T01:44:52.525Z,19.5
2018-07-01T01:49:50.609Z,19.4
2018-07-01T01:54:48.851Z,18.8
2018-07-01T01:59:46.692Z,19.2
2018-07-01T02:04:44.981Z,19.2
2018-07-01T02:09:42.711Z,18.6
2018-07-01T02:14:41.085Z,19
2018-07-01T02:19:39.208Z,18.5
2018-07-01T02:24:36.988Z,18.5
2018-07-01T02:29:35.226Z,18.9
2018-07-01T02:34:33.573Z,18.9
2018-07-01T02:39:32.159Z,18.8
2018-07-01T02:44:30.100Z,18.5
2018-07-01T02:49:28.740Z,18.7
2018-07-01T02:54:27.328Z,18.1
2018-07-01T02:59:25.575Z,18.6
2018-07-01T03:04:24.157Z,18
2018-07-01T03:09:22.201Z,18.3
2018-07-01T03:14:20.821Z,18.4
2018-07-01T03:19:19.125Z,18.4
2018-07-01T03:24:17.339Z,18
2018-07-01T03:29:15.698Z,18.2
2018-07-01T03:34:13.998Z,17.8
2018-07-01T03:39:11.821Z,17.8
2018-07-01T03:44:10.100Z,18.3
2018-07-01T03:49:08.044Z,18.2
2018-07-01T03:54:06.801Z,18.2
2018-07-01T03:59:05.202Z,17.6
2018-07-01T04:04:03.326Z,18.1
2018-07-01T04:09:01.848Z,18
2018-07-01T04:14:00.069Z,18.2
2018-07-01T04:18:58.033Z,17.6
2018-07-01T04:23:56.544Z,18.1
2018-07-01T04:28:55.103Z,18.1
2018-07-01T04:33:53.712Z,18.1
2018-07-01T04:38:51.589Z,17.5
2018-07-01T04:43:49.680Z,18
2018-07-01T04:48:47.986Z,17.5
2018-07-01T04:53:46.814Z,18
2018-07-01T04:58:44.685Z,17.4
2018-07-01T05:03:42.434Z,17.5
2018-07-01T05:08:40.229Z,17.5
2018-07-01T05:13:38.775Z,17.5
2018-07-01T05:18:37.019Z,18
2018-07-01T05:23:35.045Z,17.5
2018-07-01T05:28:33.273Z,17.8
2018-07-01T05:33:31.867Z,17.5
2018-07-01T05:38:30.088Z,17.6
2018-07-01T05:43:28.069Z,17.6
2018-07-01T05:48:26.473Z,17.9
2018-07-01T05:53:25.242Z,17.7
2018-07-01T05:58:23.167Z,18.3
2018-07-01T06:03:21.528Z,14.6
2018-07-01T06:08:19.603Z,18.1
2018-07-01T06:13:17.678Z,18.4
2018-07-01T06:18:16.012Z,18.4
2018-07-01T06:23:14.604Z,18.4
2018-07-01T06:28:12.405Z,18.4
2018-07-01T06:33:10.877Z,18.5
2018-07-01T06:38:09.427Z,18.5
2018-07-01T06:43:11.384Z,18.2
2018-07-01T06:48:08.231Z,18.1
2018-07-01T06:53:06.100Z,18.5
2018-07-01T06:58:04.699Z,18.5
2018-07-01T07:03:02.937Z,18.6
2018-07-01T07:08:01.113Z,18.6
2018-07-01T07:12:58.937Z,18.6
2018-07-01T07:17:58.197Z,18.7
2018-07-01T07:22:56.697Z,18.8
2018-07-01T07:27:54.748Z,18
2018-07-01T07:32:52.713Z,18.3
2018-07-01T07:37:50.889Z,18.9
2018-07-01T07:42:48.909Z,17.7
2018-07-01T07:47:46.310Z,19
2018-07-01T07:52:45.217Z,18.4
2018-07-01T07:57:44.785Z,19.1
2018-07-01T08:02:42.949Z,19.1
2018-07-01T08:07:41.266Z,19.2
2018-07-01T08:12:39.315Z,19.3
2018-07-01T08:17:37.655Z,19.3
2018-07-01T08:22:36.075Z,18.8
2018-07-01T08:27:34.872Z,18.9
2018-07-01T08:32:32.838Z,19.6
2018-07-01T08:37:31.312Z,19.1
2018-07-01T08:42:29.820Z,19.7
2018-07-01T08:47:27.858Z,19.8
2018-07-01T08:52:25.910Z,19.9
2018-07-01T08:57:24.017Z,20
2018-07-01T09:02:21.816Z,20
2018-07-01T09:07:21.019Z,20.1
2018-07-01T09:12:19.136Z,20.2
2018-07-01T09:17:17.517Z,20.3
2018-07-01T09:22:16.546Z,19.9
2018-07-01T09:27:14.568Z,20.6
2018-07-01T09:32:12.480Z,20.8
2018-07-01T09:37:10.594Z,21
2018-07-01T09:42:06.503Z,21.1
2018-07-01T09:47:04.996Z,20.8
2018-07-01T09:52:03.076Z,21.5
2018-07-01T09:57:01.322Z,21.7
2018-07-01T10:01:59.983Z,21.8
2018-07-01T10:07:02.154Z,21.9
2018-07-01T10:17:05.446Z,21.6
2018-07-01T10:22:04.244Z,21.7
2018-07-01T10:27:02.850Z,22.3
2018-07-01T10:32:01.034Z,21.8
2018-07-01T10:37:00.008Z,21.8
2018-07-01T10:41:58.574Z,22.5
2018-07-01T10:46:56.617Z,22.5
2018-07-01T10:51:54.871Z,22.6
2018-07-01T10:56:52.950Z,22.6
2018-07-01T11:01:50.607Z,22.8
2018-07-01T11:06:49.640Z,22.1
2018-07-01T11:11:47.915Z,23.1
2018-07-01T11:16:46.106Z,23
2018-07-01T11:21:44.873Z,23.4
2018-07-01T11:26:42.210Z,23.6
2018-07-01T11:31:39.693Z,23.7
2018-07-01T11:36:42.451Z,22.6
2018-07-01T11:41:39.304Z,24.1
2018-07-01T11:46:37.393Z,24.3
2018-07-01T11:51:36.163Z,24.5
2018-07-01T11:56:34.052Z,24.6
2018-07-01T12:01:32.689Z,24.7
2018-07-01T12:06:31.087Z,25
2018-07-01T12:11:29.456Z,25.1
2018-07-01T12:16:28.191Z,25.1
2018-07-01T12:21:26.325Z,25.5
2018-07-01T12:26:24.571Z,25.6
2018-07-01T12:31:22.894Z,25.7
2018-07-01T12:36:20.920Z,25.8
2018-07-01T12:41:19.251Z,26
2018-07-01T12:46:17.455Z,25.4
2018-07-01T12:51:15.531Z,26.1
2018-07-01T12:56:13.834Z,26.1
2018-07-01T13:01:12.123Z,26.2
2018-07-01T13:06:10.526Z,26.2
2018-07-01T13:11:09.078Z,26.7
2018-07-01T13:16:07.912Z,26.9
2018-07-01T13:21:06.513Z,26.4
2018-07-01T13:26:04.949Z,25.9
2018-07-01T13:31:02.342Z,25.5
2018-07-01T13:36:00.511Z,25.2
2018-07-01T13:40:58.249Z,25
2018-07-01T13:45:56.908Z,24.8
2018-07-01T13:50:55.202Z,24.6
2018-07-01T13:55:53.135Z,24.4
2018-07-01T14:00:51.353Z,24.3
2018-07-01T14:05:50.031Z,24.2
2018-07-01T14:10:48.031Z,23.5
2018-07-01T14:15:46.496Z,24
2018-07-01T14:20:44.212Z,23.2
2018-07-01T14:25:42.120Z,23.8
2018-07-01T14:30:40.180Z,23.7
2018-07-01T14:35:38.121Z,23.1
2018-07-01T14:40:36.601Z,23.1
2018-07-01T14:45:34.845Z,23.6
2018-07-01T14:50:32.841Z,23.5
2018-07-01T14:55:31.465Z,23
2018-07-01T15:00:29.807Z,23.5
2018-07-01T15:05:28.140Z,23.6
2018-07-01T15:10:26.068Z,23.2
2018-07-01T15:15:24.690Z,23.8
2018-07-01T15:20:22.985Z,23.2
2018-07-01T15:25:21.005Z,23.7
2018-07-01T15:30:19.125Z,23.8
2018-07-01T15:35:18.082Z,23.6
2018-07-01T15:40:16.109Z,24.2
2018-07-01T15:45:14.715Z,24.2
2018-07-01T15:50:13.373Z,24.1
2018-07-01T15:55:11.739Z,24
2018-07-01T16:00:09.472Z,24.1
2018-07-01T16:05:07.267Z,24.3
2018-07-01T16:10:05.433Z,24.3
2018-07-01T16:15:03.167Z,24.1
2018-07-01T16:20:01.147Z,23.9
2018-07-01T16:24:59.202Z,23.7
2018-07-01T16:29:57.598Z,23.1
2018-07-01T16:35:01.007Z,23.2
2018-07-01T16:39:57.534Z,23.5
2018-07-01T16:44:56.252Z,23.4
2018-07-01T16:49:54.009Z,23.3
2018-07-01T16:54:52.270Z,22.7
2018-07-01T16:59:50.784Z,22.9
2018-07-01T17:04:48.734Z,23.1
2018-07-01T17:09:46.770Z,23
2018-07-01T17:14:45.061Z,23
2018-07-01T17:19:43.733Z,22.4
2018-07-01T17:24:41.705Z,22.3
2018-07-01T17:29:40.288Z,22.8
2018-07-01T17:34:38.168Z,22.8
2018-07-01T17:39:37.142Z,22.7
2018-07-01T17:44:35.300Z,22.7
2018-07-01T17:49:33.440Z,22.6
2018-07-01T17:54:31.572Z,22
2018-07-01T17:59:29.929Z,22.5
2018-07-01T18:04:28.466Z,21.9
2018-07-01T18:09:27.047Z,22.3
2018-07-01T18:14:24.915Z,22.2
2018-07-01T18:19:23.373Z,21.6
2018-07-01T18:29:20.854Z,21.5
2018-07-01T18:34:18.429Z,22
2018-07-01T18:39:16.470Z,21.4
2018-07-01T18:44:15.016Z,21.8
2018-07-01T18:49:13.181Z,21.2
2018-07-01T18:54:11.431Z,21.7
2018-07-01T18:59:09.761Z,21
2018-07-01T19:04:07.856Z,21.5
2018-07-01T19:09:06.277Z,20.8
2018-07-01T19:14:03.852Z,21.2
2018-07-01T19:19:01.378Z,20.8
2018-07-01T19:23:58.987Z,21
2018-07-01T19:28:56.568Z,20.9
2018-07-01T19:33:54.064Z,20.9
2018-07-01T19:38:51.735Z,20.8
2018-07-01T19:43:49.687Z,20.6
2018-07-01T19:48:47.346Z,20.6
2018-07-01T19:53:44.971Z,20.5
2018-07-01T19:58:42.311Z,20.5
2018-07-01T20:03:39.433Z,20.5
2018-07-01T20:08:36.987Z,20.4
2018-07-01T20:13:34.499Z,20.3
2018-07-01T20:18:31.700Z,20.3
2018-07-01T20:23:28.890Z,20.3
2018-07-01T20:28:26.057Z,20.3
2018-07-01T20:33:23.091Z,20.2
2018-07-01T20:38:20.542Z,20.2
2018-07-01T20:43:17.793Z,20.2
2018-07-01T20:48:15.580Z,20.2
2018-07-01T20:53:12.738Z,19.8
2018-07-01T20:58:10.257Z,20.2
2018-07-01T21:03:07.567Z,20.2
2018-07-01T21:08:05.151Z,20.2
2018-07-01T21:13:02.600Z,20.1
2018-07-01T21:18:00.175Z,19.9
2018-07-01T21:22:57.260Z,20.1
2018-07-01T21:27:54.658Z,20
2018-07-01T21:32:52.441Z,20
2018-07-01T21:37:50.582Z,18.9
2018-07-01T21:42:48.061Z,20
2018-07-01T21:47:46.010Z,19.9
2018-07-01T21:52:43.659Z,19.9
2018-07-01T21:57:41.310Z,19.9
2018-07-01T22:02:38.923Z,19.9
2018-07-01T22:07:36.824Z,19.9
2018-07-01T22:12:34.789Z,19.9
2018-07-01T22:17:32.630Z,19.9
2018-07-01T22:22:30.366Z,19.9
2018-07-01T22:27:28.476Z,19.9
2018-07-01T22:32:27.201Z,19.9
2018-07-01T22:37:24.973Z,19.8
2018-07-01T22:42:22.319Z,19.8
2018-07-01T22:47:20.290Z,19.7
2018-07-01T22:52:18.469Z,19.7
2018-07-01T22:57:16.450Z,19.7
2018-07-01T23:02:14.226Z,19.7
2018-07-01T23:07:12.312Z,19.6
2018-07-01T23:12:10.253Z,19.5
2018-07-01T23:17:07.731Z,19.3
2018-07-01T23:22:06.034Z,19.1
2018-07-01T23:27:03.894Z,18.9
2018-07-01T23:32:01.835Z,18.7
2018-07-01T23:36:59.701Z,18.1
2018-07-01T23:41:57.818Z,18.5
2018-07-01T23:46:55.613Z,18
2018-07-01T23:51:53.811Z,17.9
2018-07-01T23:56:51.115Z,18.4
